Bridgeport, Washington
Current Conditions -  °F | °C
As of 11:53 PM on Thursday 23 Oct 2014 (Local Time) from KOMK Reporting Station
Clear Clear  
Wind Chill: 40°   Ceiling: Unl
Heat Index: 45°   Visibility: 10mi
Dew Point: 35°   Wind: 10mph
Humidity: 68%   Direction: 200°SSW
Pressure: 29.94"   Gusts: NA
Location:  48.01°N, 119.67°W
Report Text: KOMK 240653Z AUTO 20009KT 10SM CLR 07/02 A2994 RMK AO2 SLP143 T00720017
Loading
Personal Weather Stations






























Interactive Weather Map
Tropical Storm Tracking
New forecast layout! Learn more

10-Day Weather Forecast

Advertisements
Track Severe Weather on mobile